Blackpool, United Kingdom

5:31 PM BST on May 24, 2015 (GMT +0100)
Little Carleton | | Change Station
CLOSE
Current Station
Personal Weather Station
Location: Blackpool, Lancs
Elevation: 66 ft
Nearby Weather Stations

Elev 66 ft 53.84 °N, 3.02 °W | Updated 59 seconds ago

Partly Cloudy
Partly Cloudy
55.9 °F
Feels Like 55.9 °F
N
6.0
Wind Variable Wind from NW
Gusts 6.9 mph

Today
High -- | Low -- °F
--% Chance of Precip.
Yesterday
High -- | Low -- °F
Precip. -- in
4:57 AM 9:21 PM
Waxing Crescent, 40% visible
Pressure 30.12 in
Visibility 6.2 miles
Clouds Few 3200 ft
Dew Point 46 °F
Humidity 70%
Rainfall 0.18 in
Snow Depth Not available.
UV 3 out of 12
Pollen Not available.
Air Quality Not available.
Flu Activity Not available.
METAR EGNH 241620Z 28010KT 9999 FEW032 12/07 Q1020

More Conditions Fewer Conditions

Pressure 30.12 in
Visibility 6.2 miles
Clouds Few 3200 ft
Dew Point 46 °F
Humidity 70%
Rainfall 0.18 in
Snow Depth Not available.
UV 3 out of 12
Pollen Not available.
Air Quality Not available.
Flu Activity Not available.
METAR EGNH 241620Z 28010KT 9999 FEW032 12/07 Q1020

More Conditions Fewer Conditions

10-Day Weather Forecast

Almanac

Astronomy

May. 24, 2015 Rise Set
Actual Time
Civil Twilight
Nautical Twilight
Astronomical Twilight
Moon
Length of Visible Light
Length of Day
Tomorrow will be .
, % of the Moon is Illuminated

Today's Extremes

Country Highs Country Lows

Community

WunderPhotos

Upload Photos

1,823,777 photos uploaded!

WunderBlogs® & News

Nearby

Air Quality

  Air Quality AQ Index Pollutant
Not available.

Snow Depth

Station Depth Elevation

Earthquake Activity

City Distance Mag. Time & Date
Minimum magnitude displayed is 2.5.

Coastal Water Temperatures

Place Temperature

Stations

Nearby Weather Stations

Station Location Temp. Windchill Dew Point Humidity Wind Precip. Elev Updated Type